Time;durP1;ratioP1;P1;durP2;ratioP2;P2;SDS_P1;SDS_P2;PMS_P1;PMS_P2;Temp;Humidity;BMP_temperature;BMP_pressure;BME280_temperature;BME280_humidity;BME280_pressure;Samples;Min_cycle;Max_cycle;Signal;HPM_P1;HPM_P2
2021/11/25 00:00:27;;;;;;;28.88;18.38;;;;;;;6.75;89.44;98553.22;5090705;28;20375;-59
2021/11/25 00:02:53;;;;;;;27.15;17.98;;;;;;;6.65;88.55;98527.31;5089618;28;20038;-59
2021/11/25 00:05:18;;;;;;;28.38;19.13;;;;;;;6.78;88.82;98558.16;5082262;28;20059;-59
2021/11/25 00:07:44;;;;;;;25.88;17.30;;;;;;;6.48;88.76;98501.97;5079227;28;20488;-59
2021/11/25 00:10:10;;;;;;;30.95;19.77;;;;;;;6.65;89.02;98545.38;5091704;28;20024;-58
2021/11/25 00:12:36;;;;;;;27.42;19.35;;;;;;;6.45;89.36;98508.22;5073598;28;20023;-59
2021/11/25 00:15:02;;;;;;;28.80;19.60;;;;;;;6.70;89.32;98530.34;5091654;28;20020;-58
2021/11/25 00:17:27;;;;;;;28.20;18.75;;;;;;;6.73;89.43;98543.03;5093230;28;20548;-59
2021/11/25 00:19:53;;;;;;;29.52;18.88;;;;;;;6.67;88.81;98524.59;5092420;28;20016;-59
2021/11/25 00:22:18;;;;;;;28.90;18.17;;;;;;;6.49;88.43;98488.13;5087178;28;20093;-59
2021/11/25 00:24:44;;;;;;;27.42;18.77;;;;;;;6.77;89.08;98516.94;5068224;28;20034;-59
2021/11/25 00:27:09;;;;;;;30.23;19.90;;;;;;;6.53;88.38;98474.03;5035998;28;20036;-58
2021/11/25 00:29:35;;;;;;;31.02;19.30;;;;;;;6.86;87.93;98508.44;5044769;28;20441;-59
2021/11/25 00:32:00;;;;;;;27.77;19.27;;;;;;;6.77;89.22;98509.19;5086379;28;20056;-59
2021/11/25 00:34:26;;;;;;;28.92;20.00;;;;;;;6.74;88.40;98510.25;5088448;28;20089;-59
2021/11/25 00:36:52;;;;;;;29.65;19.65;;;;;;;6.80;88.02;98506.34;5091555;28;20056;-59
2021/11/25 00:39:18;;;;;;;27.98;18.75;;;;;;;6.66;88.19;98484.19;5088604;28;20028;-59
2021/11/25 00:41:46;;;;;;;28.85;19.35;;;;;;;6.45;87.87;98453.16;5098534;27;20865;-58
2021/11/25 00:44:11;;;;;;;29.48;19.42;;;;;;;6.79;88.81;98497.78;5060451;28;20549;-59
2021/11/25 00:46:36;;;;;;;30.48;19.55;;;;;;;6.67;89.23;98478.91;5091270;28;20035;-59
2021/11/25 00:49:03;;;;;;;26.73;19.05;;;;;;;6.57;89.70;98461.69;5091170;27;20048;-59
2021/11/25 00:51:28;;;;;;;26.30;18.13;;;;;;;6.70;89.16;98488.19;5075180;28;20218;-60
2021/11/25 00:53:54;;;;;;;26.10;17.83;;;;;;;6.59;89.86;98485.63;5093193;28;20043;-59
2021/11/25 00:56:19;;;;;;;28.88;17.42;;;;;;;6.74;89.49;98476.66;5073513;28;20626;-59
2021/11/25 00:58:44;;;;;;;26.42;17.13;;;;;;;6.68;90.04;98469.38;5071452;28;20548;-57
2021/11/25 01:01:10;;;;;;;27.05;18.17;;;;;;;6.59;90.49;98478.72;5092084;27;20027;-57
2021/11/25 01:03:35;;;;;;;27.05;18.20;;;;;;;6.50;90.17;98472.50;5074195;28;20035;-59
2021/11/25 01:06:01;;;;;;;28.95;17.95;;;;;;;6.39;89.74;98441.56;5092983;28;20027;-58
2021/11/25 01:08:27;;;;;;;28.35;19.27;;;;;;;6.62;89.86;98467.31;5088812;28;20031;-58
2021/11/25 01:10:53;;;;;;;27.88;18.30;;;;;;;6.66;88.63;98450.59;5085571;28;20012;-58
2021/11/25 01:13:19;;;;;;;27.33;18.63;;;;;;;6.76;89.04;98463.63;5101425;28;20020;-58
2021/11/25 01:15:44;;;;;;;29.08;18.52;;;;;;;6.71;89.14;98462.22;5076243;28;20703;-58
2021/11/25 01:18:14;;;;;;;25.92;18.10;;;;;;;6.64;89.99;98466.22;5088084;28;20063;-58
2021/11/25 01:20:40;;;;;;;26.15;18.63;;;;;;;6.21;90.21;98417.19;5067370;28;20062;-58
2021/11/25 01:23:09;;;;;;;26.02;18.17;;;;;;;6.27;90.86;98422.69;5087489;28;20019;-58
2021/11/25 01:25:36;;;;;;;26.73;17.17;;;;;;;6.60;89.86;98462.25;5088717;28;20028;-58
2021/11/25 01:28:01;;;;;;;27.48;17.88;;;;;;;6.61;89.84;98455.31;5072095;28;20066;-58
2021/11/25 01:30:27;;;;;;;28.58;18.40;;;;;;;6.74;90.07;98453.41;5077914;28;20397;-58
2021/11/25 01:32:52;;;;;;;25.50;17.40;;;;;;;6.68;89.71;98433.22;5072108;28;20101;-60
2021/11/25 01:35:17;;;;;;;26.80;17.42;;;;;;;6.68;89.61;98444.38;5083516;28;20020;-58
2021/11/25 01:37:43;;;;;;;25.98;17.42;;;;;;;6.78;89.70;98447.03;5089090;28;20028;-58
2021/11/25 01:40:11;;;;;;;27.15;18.27;;;;;;;6.79;89.28;98453.84;5086519;28;20060;-58
2021/11/25 01:42:37;;;;;;;25.88;18.33;;;;;;;6.69;89.78;98438.25;5090401;28;20032;-60
2021/11/25 01:45:04;;;;;;;25.55;17.67;;;;;;;6.57;89.99;98431.53;5070884;28;20410;-58
2021/11/25 01:47:29;;;;;;;25.73;17.15;;;;;;;6.73;90.10;98451.75;4960160;28;20043;-60
2021/11/25 01:49:55;;;;;;;25.58;16.77;;;;;;;6.45;89.45;98407.47;5090793;28;20885;-58
2021/11/25 01:52:20;;;;;;;24.30;17.17;;;;;;;6.62;90.17;98452.63;5088743;28;20028;-58
2021/11/25 01:54:46;;;;;;;27.67;17.23;;;;;;;6.63;89.14;98443.13;5072261;28;20617;-60
2021/11/25 01:57:11;;;;;;;26.60;16.70;;;;;;;6.65;89.63;98452.38;5106806;27;20085;-60
2021/11/25 01:59:37;;;;;;;23.75;16.65;;;;;;;6.67;89.08;98447.91;5094327;28;20814;-58
2021/11/25 02:02:06;;;;;;;23.58;16.60;;;;;;;6.31;89.56;98395.66;5025159;27;20040;-59
2021/11/25 02:04:32;;;;;;;24.48;16.75;;;;;;;6.32;90.46;98425.72;5088235;28;20028;-60
2021/11/25 02:06:57;;;;;;;25.75;17.25;;;;;;;6.33;90.36;98413.63;5094913;28;20631;-59
2021/11/25 02:09:23;;;;;;;24.55;16.40;;;;;;;6.26;90.23;98381.47;5089233;28;20020;-60
2021/11/25 02:11:48;;;;;;;26.13;16.80;;;;;;;6.54;90.21;98429.19;5093988;28;20032;-59
2021/11/25 02:14:14;;;;;;;25.27;16.80;;;;;;;6.63;89.97;98436.19;5091215;28;20058;-58
2021/11/25 02:16:40;;;;;;;24.75;16.70;;;;;;;6.68;89.85;98433.22;5094695;28;20079;-59
2021/11/25 02:19:08;;;;;;;25.35;16.77;;;;;;;6.63;89.95;98425.03;5019063;27;20539;-55
2021/11/25 02:21:34;;;;;;;27.25;16.80;;;;;;;6.61;89.70;98422.56;5097648;27;21188;-61
2021/11/25 02:23:59;;;;;;;23.20;16.92;;;;;;;6.59;89.52;98408.97;5095498;28;20709;-58
2021/11/25 02:26:25;;;;;;;21.73;15.45;;;;;;;6.54;89.17;98406.72;5092698;28;20023;-57
2021/11/25 02:28:51;;;;;;;23.55;16.75;;;;;;;6.61;89.28;98412.25;5096006;28;20039;-58
2021/11/25 02:31:16;;;;;;;23.88;16.67;;;;;;;6.35;90.10;98366.09;5088602;28;20023;-59
2021/11/25 02:33:42;;;;;;;21.60;15.30;;;;;;;6.57;89.85;98410.00;5062975;28;20373;-58
2021/11/25 02:36:08;;;;;;;22.15;15.30;;;;;;;6.68;89.67;98404.78;5070755;28;20124;-61
2021/11/25 02:38:34;;;;;;;23.83;16.55;;;;;;;6.70;89.72;98401.16;5094462;28;20039;-60
2021/11/25 02:41:00;;;;;;;23.23;15.02;;;;;;;6.68;89.64;98402.19;5086605;28;20239;-58
2021/11/25 02:43:29;;;;;;;22.52;16.00;;;;;;;6.67;89.45;98405.75;5094672;28;21876;-59
2021/11/25 02:46:03;;;;;;;21.85;16.10;;;;;;;6.46;89.88;98365.22;5093877;28;20581;-55
2021/11/25 02:48:52;;;;;;;23.88;15.45;;;;;;;6.63;90.23;98388.88;5072615;28;20493;-60
2021/11/25 02:51:22;;;;;;;22.63;15.57;;;;;;;6.67;90.47;98398.00;5019534;28;20775;-58
2021/11/25 02:53:48;;;;;;;23.17;15.65;;;;;;;6.69;89.51;98389.16;5086171;28;20028;-58
2021/11/25 02:56:24;;;;;;;21.73;14.95;;;;;;;6.42;89.53;98339.75;5091654;28;20027;-60
2021/11/25 02:58:51;;;;;;;24.63;15.68;;;;;;;6.73;88.92;98381.97;5090672;28;20027;-63
2021/11/25 03:01:23;;;;;;;22.02;14.82;;;;;;;6.39;88.77;98342.56;5092194;28;20016;-58
2021/11/25 03:03:48;;;;;;;24.35;15.50;;;;;;;6.65;88.88;98390.38;5088017;28;20032;-56
2021/11/25 03:06:14;;;;;;;23.40;16.20;;;;;;;6.47;89.46;98386.69;5031378;27;20081;-62
2021/11/25 03:08:40;;;;;;;21.65;15.25;;;;;;;6.42;90.49;98387.06;5093799;28;20663;-58
2021/11/25 03:11:12;;;;;;;24.00;16.33;;;;;;;6.35;89.63;98391.91;5089963;27;20036;-57
2021/11/25 03:13:42;;;;;;;22.88;14.75;;;;;;;6.41;89.43;98388.00;5094068;28;20036;-58
2021/11/25 03:16:10;;;;;;;21.42;15.10;;;;;;;6.52;88.37;98390.53;5088523;28;20111;-61
2021/11/25 03:18:36;;;;;;;22.55;15.80;;;;;;;6.47;88.16;98386.69;5090050;28;20446;-56
2021/11/25 03:21:02;;;;;;;22.92;16.10;;;;;;;6.40;88.76;98393.28;5075591;28;20020;-62
2021/11/25 03:23:30;;;;;;;22.58;16.00;;;;;;;6.37;87.99;98383.22;5091105;28;20062;-60
2021/11/25 03:25:56;;;;;;;24.65;16.58;;;;;;;6.38;87.64;98374.53;5094170;28;20026;-58
2021/11/25 03:28:22;;;;;;;27.70;17.67;;;;;;;6.37;87.38;98362.53;5071392;28;20036;-59
2021/11/25 03:30:55;;;;;;;25.00;16.70;;;;;;;6.44;87.19;98350.78;5094451;28;20105;-59
2021/11/25 03:33:26;;;;;;;23.67;17.52;;;;;;;6.26;87.56;98299.69;5097433;28;20035;-60
2021/11/25 03:35:52;;;;;;;28.27;18.48;;;;;;;6.30;86.53;98284.78;5088274;28;20065;-58
2021/11/25 03:38:18;;;;;;;27.42;18.23;;;;;;;6.69;85.77;98342.66;5060591;28;21100;-60
2021/11/25 03:40:43;;;;;;;23.77;17.38;;;;;;;6.74;85.05;98348.28;5091652;28;20525;-62
2021/11/25 03:43:09;;;;;;;24.85;18.33;;;;;;;6.74;84.64;98343.09;5090289;28;20039;-61
2021/11/25 03:45:34;;;;;;;24.83;18.48;;;;;;;6.43;84.69;98310.41;5086558;28;20039;-60
2021/11/25 03:48:00;;;;;;;25.75;18.83;;;;;;;6.82;84.16;98360.56;5094754;28;20034;-59
2021/11/25 03:50:26;;;;;;;25.95;20.15;;;;;;;6.41;84.64;98310.53;5094555;28;20023;-58
2021/11/25 03:52:52;;;;;;;26.40;18.88;;;;;;;6.80;84.67;98361.63;5074705;28;20493;-60
2021/11/25 03:55:19;;;;;;;25.92;18.73;;;;;;;6.69;83.65;98332.31;5089566;28;20062;-60
2021/11/25 03:57:45;;;;;;;26.42;19.88;;;;;;;6.92;83.26;98347.69;5087487;28;20039;-60
2021/11/25 04:00:13;;;;;;;27.52;19.98;;;;;;;6.87;83.66;98355.81;5092107;28;20027;-60
2021/11/25 04:02:43;;;;;;;27.77;19.42;;;;;;;6.92;84.43;98350.28;5090122;28;20277;-60
2021/11/25 04:05:09;;;;;;;27.40;18.83;;;;;;;6.95;84.37;98347.41;5091464;28;20051;-58
2021/11/25 04:07:35;;;;;;;25.80;18.15;;;;;;;6.98;83.86;98359.28;5073305;27;20198;-58
2021/11/25 04:10:02;;;;;;;26.55;18.65;;;;;;;6.73;83.88;98315.63;5048425;27;20024;-59
2021/11/25 04:12:27;;;;;;;26.73;19.48;;;;;;;6.85;83.88;98349.97;5090153;28;20077;-58
2021/11/25 04:14:52;;;;;;;26.35;19.17;;;;;;;6.56;84.45;98297.31;5090747;28;20527;-59
2021/11/25 04:17:21;;;;;;;29.58;19.63;;;;;;;6.93;84.08;98342.38;5090355;28;20028;-59
2021/11/25 04:19:50;;;;;;;26.70;19.07;;;;;;;6.81;85.13;98340.84;5086421;28;20050;-59
2021/11/25 04:22:18;;;;;;;26.92;20.48;;;;;;;6.76;85.25;98327.47;5092445;27;20641;-58
2021/11/25 04:24:44;;;;;;;27.98;19.42;;;;;;;6.74;85.88;98332.75;5077757;28;20475;-58
2021/11/25 04:27:09;;;;;;;29.98;19.90;;;;;;;6.65;85.50;98322.38;5087776;28;20569;-59
2021/11/25 04:29:38;;;;;;;26.70;19.08;;;;;;;6.68;85.26;98315.19;5069514;28;20036;-58
2021/11/25 04:37:31;;;;;;;30.45;20.77;;;;;;;6.61;85.61;98293.41;5085218;28;20051;-58
2021/11/25 04:39:56;;;;;;;25.77;19.23;;;;;;;6.73;86.00;98302.72;5079428;28;20032;-57
2021/11/25 04:42:22;;;;;;;27.85;20.45;;;;;;;6.71;86.24;98296.84;5014857;28;20024;-58
2021/11/25 04:44:48;;;;;;;29.20;19.85;;;;;;;6.58;85.61;98278.13;5099032;27;20032;-58
2021/11/25 04:47:13;;;;;;;29.95;21.08;;;;;;;6.65;86.07;98299.94;5069368;28;20484;-58
2021/11/25 04:49:39;;;;;;;28.67;20.30;;;;;;;6.69;85.01;98295.34;5091351;28;20027;-58
2021/11/25 04:52:05;;;;;;;29.73;20.98;;;;;;;6.72;86.34;98300.25;5094021;28;20020;-58
2021/11/25 04:54:30;;;;;;;31.35;20.77;;;;;;;6.72;86.31;98301.06;5071300;28;20039;-58
2021/11/25 04:56:55;;;;;;;30.02;20.15;;;;;;;6.68;86.42;98309.19;4990351;27;20047;-58
2021/11/25 04:59:21;;;;;;;29.67;20.45;;;;;;;6.66;86.47;98304.16;5090347;27;20028;-58
2021/11/25 05:01:46;;;;;;;29.33;19.77;;;;;;;6.58;86.20;98283.31;5074488;28;20028;-58
2021/11/25 05:04:12;;;;;;;30.15;22.17;;;;;;;6.47;85.76;98266.13;5088223;28;20024;-58
2021/11/25 05:06:37;;;;;;;30.02;21.13;;;;;;;6.21;86.58;98239.88;5087689;28;20032;-59
2021/11/25 05:09:04;;;;;;;28.13;20.60;;;;;;;6.52;87.51;98289.81;5087956;28;20474;-59
2021/11/25 05:11:29;;;;;;;29.02;20.48;;;;;;;6.56;86.90;98292.13;5079935;28;20114;-58
2021/11/25 05:13:55;;;;;;;28.90;20.58;;;;;;;6.63;86.90;98286.34;5069820;28;20023;-59
2021/11/25 05:16:20;;;;;;;28.02;20.08;;;;;;;6.67;86.69;98284.31;5098598;28;20035;-58
2021/11/25 05:18:46;;;;;;;28.65;20.05;;;;;;;6.28;86.67;98217.75;5089913;28;20122;-58
2021/11/25 05:21:12;;;;;;;30.65;21.10;;;;;;;6.61;86.97;98270.16;5074897;28;20390;-58
2021/11/25 05:23:38;;;;;;;28.83;21.42;;;;;;;6.64;87.21;98285.38;5086678;28;20035;-57
2021/11/25 05:26:03;;;;;;;29.77;21.35;;;;;;;6.60;87.18;98270.25;5084027;28;20036;-58
2021/11/25 05:28:29;;;;;;;29.92;21.75;;;;;;;6.48;87.49;98259.16;5076485;28;20044;-58
2021/11/25 05:30:54;;;;;;;30.67;21.92;;;;;;;6.42;88.18;98278.59;5095725;28;20055;-58
2021/11/25 05:33:21;;;;;;;29.67;21.27;;;;;;;6.54;88.14;98280.16;5066142;28;20063;-58
2021/11/25 05:35:46;;;;;;;28.38;20.80;;;;;;;6.33;87.82;98244.03;5092429;28;20024;-58
2021/11/25 05:38:14;;;;;;;29.38;20.90;;;;;;;6.56;88.01;98277.44;5094109;28;20024;-57
2021/11/25 05:40:39;;;;;;;29.00;21.80;;;;;;;6.64;87.01;98284.56;5088333;28;20051;-58
2021/11/25 05:43:04;;;;;;;30.25;20.48;;;;;;;6.64;86.76;98282.78;5077177;28;20834;-58
2021/11/25 05:45:30;;;;;;;29.50;21.02;;;;;;;6.43;87.46;98251.81;5093615;28;20592;-58
2021/11/25 05:47:55;;;;;;;27.95;20.63;;;;;;;6.66;88.20;98274.91;5089827;28;20027;-58
2021/11/25 05:50:24;;;;;;;33.33;22.73;;;;;;;6.50;87.51;98250.38;5091494;28;20085;-58
2021/11/25 05:52:52;;;;;;;30.70;21.35;;;;;;;6.54;87.55;98256.09;5089796;28;20039;-58
2021/11/25 05:55:18;;;;;;;32.83;21.58;;;;;;;6.60;88.14;98265.09;5067775;28;20035;-59
2021/11/25 05:57:44;;;;;;;31.73;21.52;;;;;;;6.61;88.03;98253.81;5073855;28;20032;-58
2021/11/25 06:00:11;;;;;;;28.27;19.50;;;;;;;6.60;87.00;98247.00;5083090;28;20038;-58
2021/11/25 06:02:45;;;;;;;28.30;21.45;;;;;;;6.58;86.81;98247.13;5095047;28;20047;-58
2021/11/25 06:05:12;;;;;;;29.92;20.80;;;;;;;6.70;86.69;98245.31;5089894;28;20036;-58
2021/11/25 06:07:42;;;;;;;27.95;20.50;;;;;;;6.74;86.61;98238.94;5092704;28;20012;-58
2021/11/25 06:10:08;;;;;;;28.10;20.52;;;;;;;6.72;87.50;98239.06;5095863;28;20024;-58
2021/11/25 06:12:34;;;;;;;28.13;20.70;;;;;;;6.38;86.56;98186.00;5069734;28;20024;-58
2021/11/25 06:14:59;;;;;;;29.50;21.02;;;;;;;6.72;86.62;98223.56;4999491;28;21646;-58
2021/11/25 06:17:24;;;;;;;31.35;22.33;;;;;;;6.75;86.86;98240.56;5074813;28;20031;-59
2021/11/25 06:19:53;;;;;;;30.45;21.73;;;;;;;6.50;86.11;98188.38;5082174;28;20573;-59
2021/11/25 06:22:20;;;;;;;32.17;21.40;;;;;;;6.48;85.80;98179.94;5086516;28;20028;-58
2021/11/25 06:24:45;;;;;;;31.98;22.02;;;;;;;6.45;86.92;98161.31;5066278;28;20034;-58
2021/11/25 06:27:11;;;;;;;31.70;22.05;;;;;;;6.50;87.04;98161.75;5058139;28;20024;-58
2021/11/25 06:29:36;;;;;;;29.05;22.17;;;;;;;6.72;87.62;98192.53;5082926;28;20031;-58
2021/11/25 06:32:02;;;;;;;30.85;22.17;;;;;;;6.69;87.49;98204.91;5083852;28;20036;-58
2021/11/25 06:34:27;;;;;;;35.40;23.38;;;;;;;6.71;87.16;98221.09;5087613;28;20558;-58
2021/11/25 06:36:53;;;;;;;31.27;21.88;;;;;;;6.68;86.64;98217.00;5087046;28;20519;-58
2021/11/25 06:39:18;;;;;;;31.73;21.35;;;;;;;6.36;86.89;98170.63;5087623;28;20047;-59
2021/11/25 06:41:44;;;;;;;29.45;21.52;;;;;;;6.61;86.97;98210.72;5091538;28;20122;-58
2021/11/25 06:44:10;;;;;;;33.58;22.15;;;;;;;6.59;87.36;98201.44;5065947;28;20135;-58
2021/11/25 06:46:35;;;;;;;29.25;22.13;;;;;;;6.39;87.12;98160.06;5091408;28;20118;-58
2021/11/25 06:49:01;;;;;;;32.28;21.45;;;;;;;6.74;86.81;98210.50;5091458;28;20024;-58
2021/11/25 06:51:27;;;;;;;33.38;22.02;;;;;;;6.74;86.61;98207.91;5091622;28;20422;-58
2021/11/25 06:53:53;;;;;;;36.55;25.83;;;;;;;6.50;87.36;98165.13;5070752;27;20107;-59
2021/11/25 06:56:18;;;;;;;34.80;24.33;;;;;;;6.64;86.74;98207.06;5091285;28;20118;-59
2021/11/25 06:58:43;;;;;;;36.45;25.45;;;;;;;6.65;87.43;98213.88;5070760;28;20550;-59
2021/11/25 07:01:09;;;;;;;35.22;24.77;;;;;;;6.41;86.71;98165.91;5088109;27;20043;-59
2021/11/25 07:03:35;;;;;;;35.13;25.25;;;;;;;6.71;87.08;98203.00;5083263;28;20085;-59
2021/11/25 07:06:04;;;;;;;38.92;28.10;;;;;;;6.73;86.26;98227.78;5059417;28;20023;-59
2021/11/25 07:08:29;;;;;;;41.10;27.73;;;;;;;6.72;86.75;98225.31;5090809;28;20130;-59
2021/11/25 07:10:55;;;;;;;37.55;27.25;;;;;;;6.71;87.51;98221.91;5069509;28;20039;-59
2021/11/25 07:13:21;;;;;;;35.97;25.98;;;;;;;6.65;87.13;98219.84;5096893;28;20486;-58
2021/11/25 07:15:46;;;;;;;33.55;23.98;;;;;;;6.71;87.74;98231.44;5096410;28;20030;-59
2021/11/25 07:18:12;;;;;;;34.13;25.33;;;;;;;6.45;86.33;98175.03;5091751;28;20040;-59
2021/11/25 07:20:37;;;;;;;37.80;27.50;;;;;;;6.67;87.31;98222.31;5096186;28;20031;-59
2021/11/25 07:23:03;;;;;;;35.03;25.73;;;;;;;6.29;87.47;98165.16;5072631;28;20019;-59
2021/11/25 07:25:28;;;;;;;33.85;24.65;;;;;;;6.70;87.00;98227.22;5096072;28;20054;-59
2021/11/25 07:27:54;;;;;;;35.88;25.17;;;;;;;6.54;87.28;98209.59;5089756;28;20034;-59
2021/11/25 07:30:20;;;;;;;35.22;24.38;;;;;;;6.64;87.27;98218.19;5094780;28;20061;-59
2021/11/25 07:32:47;;;;;;;36.95;24.70;;;;;;;6.52;86.78;98209.72;5089825;28;20750;-59
2021/11/25 07:35:19;;;;;;;33.10;23.73;;;;;;;6.56;87.06;98217.22;5090179;27;20026;-59
2021/11/25 07:37:47;;;;;;;34.38;24.10;;;;;;;6.62;86.80;98222.69;5086898;28;20077;-59
2021/11/25 07:40:12;;;;;;;33.33;24.02;;;;;;;6.66;86.32;98226.66;5048517;27;20034;-58
2021/11/25 07:42:38;;;;;;;31.73;22.23;;;;;;;6.60;84.32;98221.19;5096200;27;20032;-59
2021/11/25 07:45:04;;;;;;;28.08;21.00;;;;;;;6.63;82.14;98221.75;5073488;28;20152;-59
2021/11/25 07:47:33;;;;;;;30.10;21.40;;;;;;;6.72;80.39;98222.75;5088031;27;20688;-59
2021/11/25 07:50:10;;;;;;;30.35;20.77;;;;;;;6.80;78.99;98229.84;5091279;28;20040;-59
2021/11/25 07:52:35;;;;;;;28.67;20.48;;;;;;;6.68;77.94;98231.69;5092258;27;20035;-59
2021/11/25 07:55:02;;;;;;;25.52;18.60;;;;;;;6.48;76.93;98182.53;5083296;27;20032;-58
2021/11/25 07:57:27;;;;;;;24.90;17.13;;;;;;;6.66;76.94;98234.41;5093525;28;20115;-58
2021/11/25 07:59:53;;;;;;;25.50;18.42;;;;;;;6.73;76.96;98240.69;5101353;28;20042;-59
2021/11/25 08:02:19;;;;;;;22.27;17.13;;;;;;;6.47;76.49;98195.56;5091835;28;20497;-59
2021/11/25 08:04:45;;;;;;;23.60;16.75;;;;;;;6.83;76.86;98240.72;5088021;28;20058;-58
2021/11/25 08:07:11;;;;;;;22.35;17.20;;;;;;;6.84;76.37;98246.72;5088684;27;20028;-59
2021/11/25 08:09:36;;;;;;;24.00;17.85;;;;;;;6.79;76.43;98241.94;5070839;27;20114;-58
2021/11/25 08:12:02;;;;;;;21.80;16.63;;;;;;;6.82;76.91;98246.03;5088526;27;20020;-59
2021/11/25 08:14:27;;;;;;;23.10;16.38;;;;;;;6.82;76.83;98233.09;5086061;27;20044;-59
2021/11/25 08:16:58;;;;;;;21.45;14.55;;;;;;;6.76;75.40;98221.53;5089809;27;20198;-60
2021/11/25 08:19:23;;;;;;;22.23;15.38;;;;;;;7.00;76.11;98254.81;5090983;28;20032;-57
2021/11/25 08:21:49;;;;;;;20.88;15.43;;;;;;;7.02;76.80;98241.75;5091234;27;20070;-59
2021/11/25 08:24:14;;;;;;;21.75;14.50;;;;;;;7.00;75.55;98239.28;5092027;28;20028;-59
2021/11/25 08:26:39;;;;;;;24.38;15.02;;;;;;;7.02;75.97;98236.59;5070043;28;20027;-57
2021/11/25 08:29:05;;;;;;;19.35;14.65;;;;;;;6.61;73.94;98178.88;5066575;28;20101;-58
2021/11/25 08:31:30;;;;;;;19.52;13.40;;;;;;;6.57;73.72;98183.53;5090839;28;20501;-57
2021/11/25 08:33:56;;;;;;;22.60;16.10;;;;;;;7.01;74.72;98230.59;5092070;28;20048;-60
2021/11/25 08:36:21;;;;;;;23.77;16.98;;;;;;;7.02;74.89;98227.03;5082318;28;20024;-58
2021/11/25 08:38:47;;;;;;;21.98;14.85;;;;;;;6.95;73.41;98227.72;5092740;28;20027;-58
2021/11/25 08:41:12;;;;;;;24.20;16.05;;;;;;;6.99;75.09;98240.25;5087577;28;20570;-57
2021/11/25 08:43:38;;;;;;;25.63;16.88;;;;;;;7.00;74.99;98241.88;5092199;28;20043;-57
2021/11/25 08:46:03;;;;;;;23.08;17.15;;;;;;;6.93;75.86;98240.75;5099097;28;20020;-57
2021/11/25 08:48:29;;;;;;;24.15;16.55;;;;;;;7.01;75.59;98237.50;5094354;28;20046;-56
2021/11/25 08:50:54;;;;;;;27.92;18.27;;;;;;;6.77;75.95;98204.25;5074839;28;20031;-59
2021/11/25 08:53:22;;;;;;;26.95;18.38;;;;;;;6.95;76.37;98233.69;5090458;28;20111;-56
2021/11/25 08:55:48;;;;;;;26.90;18.77;;;;;;;7.02;76.74;98237.38;5072197;28;20051;-58
2021/11/25 08:58:14;;;;;;;26.83;19.52;;;;;;;6.77;76.88;98193.91;5063714;28;20522;-56
2021/11/25 09:00:39;;;;;;;25.35;18.80;;;;;;;7.08;78.26;98221.38;5091674;28;20063;-57
2021/11/25 09:03:05;;;;;;;27.63;18.60;;;;;;;6.90;77.88;98197.91;5093946;28;20020;-59
2021/11/25 09:05:32;;;;;;;24.80;18.15;;;;;;;7.18;77.41;98221.38;5089556;28;20490;-57
2021/11/25 09:07:57;;;;;;;22.08;16.40;;;;;;;7.38;77.02;98239.53;5091583;28;20016;-55
2021/11/25 09:10:23;;;;;;;24.27;17.33;;;;;;;7.38;77.08;98242.94;5092853;28;20363;-61
2021/11/25 09:12:49;;;;;;;24.42;15.75;;;;;;;7.03;75.59;98202.84;5067209;28;20156;-58
2021/11/25 09:15:15;;;;;;;23.13;16.30;;;;;;;7.31;75.73;98232.28;5075432;28;20406;-58
2021/11/25 09:17:41;;;;;;;21.67;15.00;;;;;;;7.37;74.90;98230.94;5083369;28;20028;-58
2021/11/25 09:20:07;;;;;;;22.67;14.80;;;;;;;7.45;74.64;98230.28;5095783;28;20020;-59
2021/11/25 09:22:33;;;;;;;22.35;15.35;;;;;;;7.41;74.33;98215.97;5088315;28;20448;-57
2021/11/25 09:24:58;;;;;;;21.33;14.85;;;;;;;7.43;73.39;98219.25;5091619;28;20099;-60
2021/11/25 09:27:24;;;;;;;23.83;16.02;;;;;;;7.54;75.03;98221.72;5092012;28;20038;-59
2021/11/25 09:29:50;;;;;;;25.17;17.20;;;;;;;7.44;74.09;98226.88;5073846;28;20320;-59
2021/11/25 09:32:15;;;;;;;23.95;16.90;;;;;;;7.20;74.23;98193.63;5093337;28;20030;-57
2021/11/25 09:34:41;;;;;;;24.05;17.55;;;;;;;7.27;75.05;98212.81;5090217;28;20035;-61
2021/11/25 09:37:07;;;;;;;24.20;17.10;;;;;;;7.25;75.65;98213.94;5091653;28;20413;-57
2021/11/25 09:39:33;;;;;;;27.23;18.30;;;;;;;7.19;76.23;98207.53;5095446;28;20020;-57
2021/11/25 09:41:58;;;;;;;25.50;17.70;;;;;;;7.02;76.08;98167.59;5095267;28;20030;-60
2021/11/25 09:44:24;;;;;;;26.67;19.17;;;;;;;7.05;76.17;98174.28;5097145;28;20191;-59
2021/11/25 09:46:55;;;;;;;27.60;19.52;;;;;;;7.17;76.05;98198.25;5092700;28;20027;-58
2021/11/25 09:49:24;;;;;;;27.13;18.02;;;;;;;6.77;76.59;98150.78;5085967;28;20510;-58
2021/11/25 09:51:50;;;;;;;27.98;19.70;;;;;;;7.05;77.05;98185.44;5107157;27;20109;-56
2021/11/25 09:54:16;;;;;;;26.85;18.27;;;;;;;7.16;76.94;98192.25;5067436;28;20496;-59
2021/11/25 09:56:41;;;;;;;29.92;18.92;;;;;;;7.17;76.68;98193.06;5094338;28;20046;-57
2021/11/25 09:59:07;;;;;;;29.30;19.50;;;;;;;6.81;76.97;98122.91;5096068;28;20106;-58
2021/11/25 10:01:33;;;;;;;28.92;20.38;;;;;;;7.18;75.87;98185.19;5096230;28;20730;-58
2021/11/25 10:03:59;;;;;;;25.85;18.27;;;;;;;7.09;76.20;98178.22;5078514;28;21094;-58
2021/11/25 10:06:36;;;;;;;29.70;19.60;;;;;;;7.12;76.36;98170.22;5079977;28;20049;-58
2021/11/25 10:09:03;;;;;;;28.35;19.48;;;;;;;7.11;76.15;98163.41;5082401;28;20103;-58
2021/11/25 10:11:34;;;;;;;29.80;20.60;;;;;;;7.11;76.04;98153.06;5098128;28;20448;-56
2021/11/25 10:14:07;;;;;;;30.10;19.98;;;;;;;7.13;76.70;98159.72;5089961;28;20141;-58
2021/11/25 10:16:37;;;;;;;29.50;20.45;;;;;;;7.17;76.46;98149.91;5093098;28;20016;-60
2021/11/25 10:19:15;;;;;;;30.70;20.50;;;;;;;7.10;77.59;98136.72;5094455;28;20022;-59
2021/11/25 10:21:47;;;;;;;26.05;18.35;;;;;;;7.13;76.39;98143.38;5064786;28;20284;-59
2021/11/25 10:24:12;;;;;;;31.27;20.50;;;;;;;7.19;78.92;98131.69;5091997;28;20024;-56
2021/11/25 10:26:38;;;;;;;29.50;21.13;;;;;;;7.14;78.64;98126.94;5074463;27;20045;-59
2021/11/25 10:29:07;;;;;;;30.33;20.92;;;;;;;7.16;79.62;98124.22;5090629;28;20482;-57
2021/11/25 10:31:36;;;;;;;31.35;22.30;;;;;;;7.11;79.32;98137.53;5088717;28;20039;-58
2021/11/25 10:34:19;;;;;;;27.58;19.20;;;;;;;7.07;79.20;98123.25;5090913;28;20523;-59
2021/11/25 10:41:51;;;;;;;32.45;22.00;;;;;;;7.07;82.97;98116.31;5082926;27;20781;-60
2021/11/25 10:44:24;;;;;;;33.30;22.70;;;;;;;7.09;85.09;98098.88;5093147;28;20024;-59
2021/11/25 10:46:52;;;;;;;37.55;24.17;;;;;;;7.02;83.18;98097.78;5073317;28;20034;-56
2021/11/25 10:49:19;;;;;;;39.08;24.30;;;;;;;6.80;83.96;98049.75;5096268;28;20035;-59
2021/11/25 10:51:45;;;;;;;35.50;23.02;;;;;;;7.10;84.34;98094.53;5067786;28;20742;-59
2021/11/25 10:54:17;;;;;;;34.33;23.48;;;;;;;7.11;82.34;98107.31;5088309;28;20035;-59
2021/11/25 10:56:52;;;;;;;35.03;24.15;;;;;;;7.12;85.48;98087.47;5087437;28;20024;-59
2021/11/25 10:59:33;;;;;;;32.90;23.08;;;;;;;6.78;84.59;98037.94;5074418;27;20029;-59
2021/11/25 11:01:59;;;;;;;34.58;23.38;;;;;;;7.13;84.85;98086.50;5074112;28;20358;-59
2021/11/25 11:04:28;;;;;;;32.70;21.80;;;;;;;7.09;84.73;98078.22;5073290;28;20148;-59
2021/11/25 11:06:55;;;;;;;32.85;23.40;;;;;;;7.05;84.49;98068.28;5077449;28;20028;-60
2021/11/25 11:09:30;;;;;;;34.13;24.55;;;;;;;7.04;85.06;98048.53;5063586;28;20773;-60
2021/11/25 11:12:18;;;;;;;34.72;23.95;;;;;;;7.09;85.21;98072.22;5087077;27;20147;-59
2021/11/25 11:14:56;;;;;;;36.05;23.23;;;;;;;6.73;85.52;98021.06;5088097;27;20050;-59
2021/11/25 11:17:29;;;;;;;35.38;23.13;;;;;;;7.04;85.69;98053.72;5091403;28;20024;-59
2021/11/25 11:20:09;;;;;;;35.85;23.55;;;;;;;7.02;85.65;98055.63;5092221;27;20490;-59
2021/11/25 11:22:34;;;;;;;39.35;24.52;;;;;;;7.00;86.25;98054.94;5094272;27;20035;-59
2021/11/25 11:25:01;;;;;;;35.45;23.95;;;;;;;6.97;86.13;98050.03;5091916;28;20023;-59
2021/11/25 11:27:27;;;;;;;36.28;24.48;;;;;;;6.98;88.84;98047.31;5094621;28;20101;-60
2021/11/25 11:29:52;;;;;;;36.38;24.35;;;;;;;6.89;87.88;98032.63;5080413;27;20513;-60
2021/11/25 11:32:19;;;;;;;35.92;24.67;;;;;;;6.88;88.19;98033.56;5070622;28;20035;-59